createdAt,value
2018-03-30T00:00:43.425Z,7.30
2018-03-30T00:03:15.562Z,7.13
2018-03-30T00:05:47.228Z,7.20
2018-03-30T00:08:19.196Z,6.93
2018-03-30T00:10:54.621Z,7.20
2018-03-30T00:13:26.477Z,7.47
2018-03-30T00:15:58.263Z,7.43
2018-03-30T00:18:29.972Z,7.57
2018-03-30T00:21:02.335Z,7.40
2018-03-30T00:23:33.954Z,8.40
2018-03-30T00:26:05.560Z,7.97
2018-03-30T00:28:37.228Z,8.13
2018-03-30T00:31:08.794Z,8.37
2018-03-30T00:33:40.619Z,7.67
2018-03-30T00:36:12.243Z,8.40
2018-03-30T00:38:44.236Z,8.60
2018-03-30T00:41:15.914Z,7.67
2018-03-30T00:43:47.444Z,7.07
2018-03-30T00:46:19.213Z,7.70
2018-03-30T00:48:50.901Z,7.40
2018-03-30T00:51:22.648Z,7.97
2018-03-30T00:53:54.256Z,7.63
2018-03-30T00:56:26.023Z,7.73
2018-03-30T00:58:57.555Z,7.90
2018-03-30T01:01:29.539Z,8.30
2018-03-30T01:04:01.181Z,7.33
2018-03-30T01:06:33.086Z,7.50
2018-03-30T01:09:06.386Z,7.90
2018-03-30T01:11:38.215Z,7.87
2018-03-30T01:14:10.191Z,7.10
2018-03-30T01:16:42.185Z,6.87
2018-03-30T01:19:13.882Z,6.87
2018-03-30T01:21:45.939Z,7.13
2018-03-30T01:24:17.604Z,7.60
2018-03-30T01:26:49.293Z,7.77
2018-03-30T01:29:20.782Z,7.87
2018-03-30T01:31:52.376Z,7.30
2018-03-30T01:34:24.133Z,8.13
2018-03-30T01:36:56.041Z,7.23
2018-03-30T01:39:27.801Z,7.00
2018-03-30T01:41:59.607Z,6.60
2018-03-30T01:44:31.334Z,6.73
2018-03-30T01:47:02.902Z,7.30
2018-03-30T01:49:34.648Z,6.80
2018-03-30T01:52:06.462Z,6.20
2018-03-30T01:54:38.429Z,6.70
2018-03-30T01:57:10.155Z,6.30
2018-03-30T01:59:42.332Z,7.10
2018-03-30T02:02:14.718Z,6.77
2018-03-30T02:04:46.506Z,7.13
2018-03-30T02:07:18.104Z,7.17
2018-03-30T02:09:49.866Z,6.57
2018-03-30T02:12:21.621Z,6.37
2018-03-30T02:14:53.542Z,6.63
2018-03-30T02:17:25.246Z,6.10
2018-03-30T02:19:57.040Z,5.87
2018-03-30T02:22:28.778Z,6.73
2018-03-30T02:25:00.664Z,6.30
2018-03-30T02:27:32.948Z,6.10
2018-03-30T02:30:04.687Z,6.60
2018-03-30T02:32:37.203Z,6.57
2018-03-30T02:35:09.116Z,6.53
2018-03-30T02:37:40.765Z,5.80
2018-03-30T02:40:19.436Z,6.13
2018-03-30T02:42:51.157Z,6.20
2018-03-30T02:45:23.157Z,6.57
2018-03-30T02:47:55.875Z,6.03
2018-03-30T02:50:27.443Z,6.13
2018-03-30T02:52:59.218Z,6.30
2018-03-30T02:55:30.956Z,5.77
2018-03-30T02:58:02.561Z,6.23
2018-03-30T03:00:34.162Z,5.83
2018-03-30T03:03:06.050Z,5.70
2018-03-30T03:05:38.263Z,6.03
2018-03-30T03:08:09.929Z,5.37
2018-03-30T03:10:49.663Z,5.43
2018-03-30T03:13:21.772Z,5.67
2018-03-30T03:15:53.532Z,5.80
2018-03-30T03:18:25.060Z,6.13
2018-03-30T03:20:56.880Z,7.00
2018-03-30T03:23:28.547Z,6.47
2018-03-30T03:26:00.393Z,5.77
2018-03-30T03:28:32.809Z,6.47
2018-03-30T03:31:05.081Z,5.73
2018-03-30T03:33:36.734Z,7.33
2018-03-30T03:36:08.381Z,6.83
2018-03-30T03:38:40.077Z,6.83
2018-03-30T03:41:11.608Z,7.70
2018-03-30T03:43:43.285Z,7.40
2018-03-30T03:46:15.239Z,6.70
2018-03-30T03:48:46.999Z,8.43
2018-03-30T03:51:18.490Z,7.17
2018-03-30T03:53:50.324Z,8.07
2018-03-30T03:56:22.157Z,7.70
2018-03-30T03:58:53.918Z,7.40
2018-03-30T04:01:26.329Z,6.50
2018-03-30T04:03:57.832Z,6.63
2018-03-30T04:06:29.998Z,7.63
2018-03-30T04:09:01.585Z,7.90
2018-03-30T04:11:33.178Z,7.50
2018-03-30T04:14:05.170Z,7.63
2018-03-30T04:16:36.977Z,8.60
2018-03-30T04:19:08.908Z,7.43
2018-03-30T04:21:40.633Z,7.53
2018-03-30T04:24:12.575Z,7.10
2018-03-30T04:26:44.542Z,7.60
2018-03-30T04:29:16.100Z,6.93
2018-03-30T04:31:47.800Z,7.10
2018-03-30T04:34:19.723Z,8.47
2018-03-30T04:36:51.553Z,8.13
2018-03-30T04:39:25.768Z,7.47
2018-03-30T04:41:57.571Z,7.43
2018-03-30T04:44:29.438Z,7.40
2018-03-30T04:47:00.942Z,7.93
2018-03-30T04:49:33.226Z,7.47
2018-03-30T04:52:04.713Z,7.13
2018-03-30T04:54:36.329Z,8.47
2018-03-30T04:57:07.937Z,7.70
2018-03-30T04:59:39.621Z,7.07
2018-03-30T05:02:11.818Z,7.07
2018-03-30T05:04:44.089Z,7.07
2018-03-30T05:07:16.048Z,7.10
2018-03-30T05:09:47.905Z,7.73
2018-03-30T05:12:19.765Z,6.93
2018-03-30T05:14:51.528Z,6.90
2018-03-30T05:17:23.563Z,7.07
2018-03-30T05:19:55.653Z,6.80
2018-03-30T05:22:27.365Z,6.83
2018-03-30T05:24:59.074Z,7.53
2018-03-30T05:27:32.212Z,7.07
2018-03-30T05:30:04.728Z,7.03
2018-03-30T05:32:36.803Z,6.53
2018-03-30T05:35:08.347Z,7.27
2018-03-30T05:40:01.511Z,6.80
2018-03-30T05:42:33.187Z,6.87
2018-03-30T05:45:05.349Z,8.53
2018-03-30T05:47:37.368Z,7.87
2018-03-30T05:50:09.077Z,7.10
2018-03-30T05:52:40.780Z,6.50
2018-03-30T05:55:13.357Z,6.90
2018-03-30T05:57:45.467Z,7.80
2018-03-30T06:00:17.214Z,7.17
2018-03-30T06:02:49.114Z,7.37
2018-03-30T06:05:21.104Z,8.20
2018-03-30T06:07:53.018Z,8.40
2018-03-30T06:10:25.357Z,8.10
2018-03-30T06:12:56.903Z,8.83
2018-03-30T06:15:28.937Z,7.50
2018-03-30T06:18:01.316Z,7.87
2018-03-30T06:20:33.120Z,7.97
2018-03-30T06:23:05.305Z,7.53
2018-03-30T06:25:37.028Z,7.77
2018-03-30T06:28:08.883Z,8.77
2018-03-30T06:30:40.765Z,7.90
2018-03-30T06:33:13.454Z,8.80
2018-03-30T06:35:49.613Z,8.77
2018-03-30T06:38:22.051Z,8.20
2018-03-30T06:40:53.801Z,8.27
2018-03-30T06:43:26.206Z,7.50
2018-03-30T06:45:58.224Z,8.60
2018-03-30T06:48:31.314Z,8.93
2018-03-30T06:51:04.009Z,8.67
2018-03-30T06:53:36.172Z,9.30
2018-03-30T06:56:08.652Z,9.03
2018-03-30T06:58:40.515Z,9.23
2018-03-30T07:01:12.869Z,9.17
2018-03-30T07:03:46.091Z,8.90
2018-03-30T07:06:20.020Z,9.30
2018-03-30T07:08:52.989Z,8.90
2018-03-30T07:11:31.258Z,9.03
2018-03-30T07:14:05.167Z,8.50
2018-03-30T07:16:41.176Z,8.23
2018-03-30T07:19:14.362Z,8.33
2018-03-30T07:21:46.806Z,8.50
2018-03-30T07:24:21.023Z,8.70
2018-03-30T07:26:59.172Z,8.83
2018-03-30T07:29:35.147Z,8.30
2018-03-30T07:32:07.513Z,8.20
2018-03-30T07:34:40.070Z,9.17
2018-03-30T07:37:15.821Z,8.37
2018-03-30T07:39:49.911Z,8.67
2018-03-30T07:42:23.763Z,8.10
2018-03-30T07:44:56.088Z,7.70
2018-03-30T07:47:27.874Z,8.83
2018-03-30T07:50:02.165Z,8.63
2018-03-30T07:52:36.021Z,8.70
2018-03-30T07:55:08.936Z,8.60
2018-03-30T07:57:42.848Z,8.33
2018-03-30T08:00:24.965Z,8.77
2018-03-30T08:02:56.963Z,8.80
2018-03-30T08:05:28.969Z,8.60
2018-03-30T08:08:01.474Z,8.40
2018-03-30T08:10:33.812Z,9.10
2018-03-30T08:13:09.338Z,8.57
2018-03-30T08:18:04.693Z,9.17
2018-03-30T08:20:37.168Z,8.93
2018-03-30T08:23:09.168Z,9.63
2018-03-30T08:25:41.027Z,9.67
2018-03-30T08:28:17.107Z,9.40
2018-03-30T08:30:50.977Z,10.03
2018-03-30T08:33:23.030Z,10.30
2018-03-30T08:36:00.446Z,10.00
2018-03-30T08:38:32.137Z,10.07
2018-03-30T08:41:03.807Z,9.17
2018-03-30T08:43:36.028Z,8.60
2018-03-30T08:46:10.442Z,8.87
2018-03-30T08:48:43.548Z,9.97
2018-03-30T08:51:20.187Z,9.47
2018-03-30T08:56:13.409Z,8.90
2018-03-30T08:58:45.697Z,7.90
2018-03-30T09:01:18.182Z,8.40
2018-03-30T09:03:50.213Z,8.77
2018-03-30T09:09:25.830Z,7.97
2018-03-30T09:11:58.117Z,7.97
2018-03-30T09:14:32.151Z,7.40
2018-03-30T09:17:04.958Z,7.03
2018-03-30T09:19:37.136Z,7.50
2018-03-30T09:22:09.631Z,7.23
2018-03-30T09:24:42.948Z,7.33
2018-03-30T09:27:15.360Z,7.43
2018-03-30T09:29:51.682Z,7.77
2018-03-30T09:32:24.142Z,7.57
2018-03-30T09:34:56.789Z,7.73
2018-03-30T09:37:30.084Z,7.87
2018-03-30T09:40:04.298Z,8.10
2018-03-30T09:42:43.196Z,7.23
2018-03-30T09:45:18.591Z,8.13
2018-03-30T09:47:51.805Z,7.13
2018-03-30T09:50:23.729Z,8.13
2018-03-30T09:52:55.892Z,6.63
2018-03-30T09:55:31.480Z,6.80
2018-03-30T09:58:04.460Z,7.47
2018-03-30T10:00:37.454Z,7.30
2018-03-30T10:03:12.944Z,7.43
2018-03-30T10:05:44.812Z,7.20
2018-03-30T10:08:16.483Z,7.17
2018-03-30T10:10:48.584Z,7.40
2018-03-30T10:13:20.699Z,7.90
2018-03-30T10:15:53.380Z,7.97
2018-03-30T10:18:25.409Z,8.40
2018-03-30T10:20:57.119Z,9.00
2018-03-30T10:23:29.931Z,8.70
2018-03-30T10:26:01.896Z,8.00
2018-03-30T10:28:37.716Z,8.47
2018-03-30T10:31:09.528Z,8.10
2018-03-30T10:33:42.183Z,8.07
2018-03-30T10:36:14.269Z,9.63
2018-03-30T10:38:46.092Z,8.80
2018-03-30T10:41:18.232Z,9.07
2018-03-30T10:43:51.470Z,9.07
2018-03-30T10:46:24.594Z,9.17
2018-03-30T10:49:01.142Z,8.90
2018-03-30T10:51:34.879Z,8.70
2018-03-30T10:54:30.229Z,8.70
2018-03-30T10:57:09.412Z,8.10
2018-03-30T10:59:42.897Z,8.87
2018-03-30T11:02:14.794Z,8.40
2018-03-30T11:04:46.872Z,8.73
2018-03-30T11:07:20.593Z,8.40
2018-03-30T11:09:53.990Z,8.13
2018-03-30T11:12:26.233Z,9.20
2018-03-30T11:14:58.300Z,8.90
2018-03-30T11:17:35.177Z,9.03
2018-03-30T11:20:12.611Z,8.50
2018-03-30T11:22:45.104Z,8.43
2018-03-30T11:25:17.360Z,8.80
2018-03-30T11:27:49.588Z,9.07
2018-03-30T11:30:23.425Z,8.73
2018-03-30T11:32:55.091Z,8.33
2018-03-30T11:35:26.990Z,8.90
2018-03-30T11:37:58.522Z,7.97
2018-03-30T11:40:30.375Z,8.23
2018-03-30T11:43:07.862Z,8.20
2018-03-30T11:45:42.558Z,7.83
2018-03-30T11:48:14.788Z,7.47
2018-03-30T11:50:46.621Z,7.40
2018-03-30T11:53:18.538Z,7.03
2018-03-30T11:56:00.182Z,7.07
2018-03-30T11:58:34.374Z,8.13
2018-03-30T12:01:07.181Z,7.20
2018-03-30T12:03:43.250Z,7.13
2018-03-30T12:06:18.178Z,7.90
2018-03-30T12:08:49.998Z,7.33
2018-03-30T12:11:22.122Z,7.13
2018-03-30T12:13:54.071Z,6.60
2018-03-30T12:16:27.110Z,6.40
2018-03-30T12:18:58.640Z,7.10
2018-03-30T12:21:30.307Z,6.97
2018-03-30T12:24:01.912Z,6.83
2018-03-30T12:26:34.079Z,7.20
2018-03-30T12:29:10.446Z,6.87
2018-03-30T12:31:43.039Z,5.93
2018-03-30T12:34:15.013Z,4.47
2018-03-30T12:36:47.432Z,3.80
2018-03-30T12:39:19.127Z,3.70
2018-03-30T12:41:51.303Z,4.07
2018-03-30T12:44:23.101Z,4.27
2018-03-30T12:46:55.135Z,3.93
2018-03-30T12:49:26.960Z,4.00
2018-03-30T12:51:59.519Z,3.20
2018-03-30T12:54:33.602Z,3.73
2018-03-30T12:57:06.207Z,3.10
2018-03-30T12:59:38.293Z,3.33
2018-03-30T13:02:10.655Z,3.00
2018-03-30T13:04:42.715Z,3.20
2018-03-30T13:07:14.828Z,3.00
2018-03-30T13:09:47.783Z,3.07
2018-03-30T13:12:21.831Z,2.90
2018-03-30T13:14:54.521Z,2.80
2018-03-30T13:17:26.122Z,2.80
2018-03-30T13:20:02.510Z,3.00
2018-03-30T13:22:36.129Z,3.13
2018-03-30T13:25:13.312Z,2.83
2018-03-30T13:27:45.562Z,2.57
2018-03-30T13:30:17.814Z,2.73
2018-03-30T13:32:51.225Z,2.97
2018-03-30T13:35:24.145Z,2.80
2018-03-30T13:37:57.672Z,2.47
2018-03-30T13:40:29.603Z,2.30
2018-03-30T13:43:02.121Z,2.33
2018-03-30T13:45:34.472Z,2.43
2018-03-30T13:48:06.215Z,2.40
2018-03-30T13:50:40.416Z,2.60
2018-03-30T13:53:14.227Z,2.00
2018-03-30T13:55:46.974Z,3.10
2018-03-30T13:58:23.151Z,3.23
2018-03-30T14:00:55.984Z,2.60
2018-03-30T14:03:28.638Z,3.10
2018-03-30T14:06:01.145Z,2.87
2018-03-30T14:08:32.864Z,3.83
2018-03-30T14:11:09.794Z,3.27
2018-03-30T14:13:44.116Z,2.70
2018-03-30T14:16:18.893Z,2.40
2018-03-30T14:18:51.116Z,2.20
2018-03-30T14:21:23.054Z,2.40
2018-03-30T14:23:54.659Z,2.60
2018-03-30T14:26:26.435Z,2.43
2018-03-30T14:28:58.551Z,2.83
2018-03-30T14:31:30.808Z,2.50
2018-03-30T14:34:03.716Z,2.90
2018-03-30T14:36:35.370Z,2.50
2018-03-30T14:39:08.223Z,2.70
2018-03-30T14:41:40.080Z,2.50
2018-03-30T14:44:13.278Z,2.47
2018-03-30T14:46:45.733Z,2.67
2018-03-30T14:49:17.822Z,2.40
2018-03-30T14:51:50.183Z,2.83
2018-03-30T14:54:23.264Z,2.60
2018-03-30T14:56:55.210Z,2.73
2018-03-30T14:59:27.207Z,2.67
2018-03-30T15:01:59.302Z,2.67
2018-03-30T15:04:41.548Z,2.77
2018-03-30T15:07:28.977Z,3.03
2018-03-30T15:10:09.144Z,2.87
2018-03-30T15:12:41.266Z,2.90
2018-03-30T15:15:19.653Z,2.87
2018-03-30T15:17:53.313Z,3.03
2018-03-30T15:20:28.777Z,2.60
2018-03-30T15:23:03.247Z,3.20
2018-03-30T15:25:37.684Z,3.30
2018-03-30T15:28:10.141Z,3.10
2018-03-30T15:30:42.116Z,3.30
2018-03-30T15:33:14.292Z,3.40
2018-03-30T15:35:46.130Z,3.70
2018-03-30T15:38:20.077Z,3.67
2018-03-30T15:40:52.761Z,4.33
2018-03-30T15:43:24.577Z,4.23
2018-03-30T15:46:03.182Z,3.53
2018-03-30T15:48:36.765Z,3.90
2018-03-30T15:51:09.091Z,3.97
2018-03-30T15:53:42.373Z,3.90
2018-03-30T15:56:14.873Z,4.20
2018-03-30T15:58:50.731Z,4.50
2018-03-30T16:01:22.511Z,4.43
2018-03-30T16:03:57.105Z,4.20
2018-03-30T16:06:30.705Z,4.70
2018-03-30T16:09:06.658Z,4.80
2018-03-30T16:11:38.529Z,4.53
2018-03-30T16:14:11.212Z,4.40
2018-03-30T16:16:43.123Z,5.37
2018-03-30T16:19:23.011Z,5.77
2018-03-30T16:22:00.936Z,5.73
2018-03-30T16:24:37.133Z,6.93
2018-03-30T16:27:11.533Z,5.07
2018-03-30T16:29:48.017Z,6.90
2018-03-30T16:32:19.120Z,9.40
2018-03-30T16:34:53.027Z,6.20
2018-03-30T16:37:24.805Z,7.23
2018-03-30T16:40:01.318Z,6.40
2018-03-30T16:42:32.354Z,7.63
2018-03-30T16:45:03.362Z,7.03
2018-03-30T16:47:34.228Z,7.07
2018-03-30T16:50:05.733Z,8.40
2018-03-30T16:52:36.492Z,8.20
2018-03-30T16:55:08.034Z,9.70
2018-03-30T16:57:38.992Z,9.30
2018-03-30T17:00:10.366Z,9.83
2018-03-30T17:02:41.618Z,9.20
2018-03-30T17:05:12.648Z,9.13
2018-03-30T17:07:43.653Z,9.00
2018-03-30T17:10:14.298Z,9.70
2018-03-30T17:12:46.342Z,10.30
2018-03-30T17:15:16.929Z,10.50
2018-03-30T17:17:47.973Z,10.17
2018-03-30T17:20:18.615Z,9.50
2018-03-30T17:22:49.525Z,8.83
2018-03-30T17:25:20.693Z,8.73
2018-03-30T17:27:51.322Z,9.20
2018-03-30T17:30:22.388Z,9.00
2018-03-30T17:32:54.965Z,8.10
2018-03-30T17:35:27.597Z,8.97
2018-03-30T17:37:59.388Z,8.75
2018-03-30T17:40:30.765Z,8.23
2018-03-30T17:43:03.230Z,8.60
2018-03-30T17:45:35.616Z,7.80
2018-03-30T17:48:06.574Z,7.90
2018-03-30T17:50:37.305Z,7.90
2018-03-30T17:53:08.097Z,8.00
2018-03-30T17:55:39.030Z,8.70
2018-03-30T17:58:09.638Z,7.70
2018-03-30T18:00:41.320Z,8.37
2018-03-30T18:03:11.944Z,7.90
2018-03-30T18:05:42.873Z,8.00
2018-03-30T18:08:13.496Z,6.97
2018-03-30T18:10:44.636Z,7.67
2018-03-30T18:13:15.728Z,7.40
2018-03-30T18:15:46.508Z,7.63
2018-03-30T18:18:17.099Z,13.33
2018-03-30T18:20:48.198Z,9.20
2018-03-30T18:23:18.893Z,8.38
2018-03-30T18:25:50.121Z,7.73
2018-03-30T18:28:20.747Z,8.30
2018-03-30T18:30:51.700Z,7.13
2018-03-30T18:33:22.321Z,7.47
2018-03-30T18:35:53.177Z,7.47
2018-03-30T18:38:23.834Z,7.87
2018-03-30T18:40:54.504Z,8.50
2018-03-30T18:43:25.111Z,8.07
2018-03-30T18:45:55.673Z,8.37
2018-03-30T18:48:26.756Z,8.13
2018-03-30T18:50:57.835Z,8.47
2018-03-30T18:53:28.492Z,8.40
2018-03-30T18:55:59.450Z,7.50
2018-03-30T18:58:29.995Z,8.00
2018-03-30T19:01:00.708Z,7.07
2018-03-30T19:03:31.378Z,8.63
2018-03-30T19:06:02.362Z,7.80
2018-03-30T19:08:33.042Z,8.10
2018-03-30T19:11:03.872Z,8.63
2018-03-30T19:13:34.941Z,9.13
2018-03-30T19:16:05.581Z,8.60
2018-03-30T19:18:39.610Z,8.50
2018-03-30T19:21:12.266Z,10.17
2018-03-30T19:23:46.303Z,9.00
2018-03-30T19:26:17.823Z,8.60
2018-03-30T19:28:48.440Z,9.90
2018-03-30T19:31:20.232Z,8.53
2018-03-30T19:33:51.047Z,9.73
2018-03-30T19:36:22.006Z,10.10
2018-03-30T19:38:52.560Z,9.13
2018-03-30T19:41:23.505Z,8.87
2018-03-30T19:43:54.163Z,8.87
2018-03-30T19:46:28.060Z,9.10
2018-03-30T19:48:59.507Z,9.87
2018-03-30T19:51:30.409Z,9.37
2018-03-30T19:54:01.125Z,9.50
2018-03-30T19:56:32.599Z,8.80
2018-03-30T19:59:03.344Z,10.20
2018-03-30T20:01:33.875Z,9.77
2018-03-30T20:04:05.140Z,8.63
2018-03-30T20:06:35.884Z,8.70
2018-03-30T20:09:06.578Z,8.23
2018-03-30T20:11:37.463Z,9.53
2018-03-30T20:14:12.310Z,8.77
2018-03-30T20:16:49.873Z,9.00
2018-03-30T20:19:22.029Z,9.13
2018-03-30T20:21:55.564Z,8.40
2018-03-30T20:24:26.619Z,9.00
2018-03-30T20:26:58.513Z,8.70
2018-03-30T20:29:31.888Z,9.40
2018-03-30T21:29:36.435Z,8.97
2018-03-30T21:32:06.986Z,8.80
2018-03-30T21:34:37.774Z,8.80
2018-03-30T21:37:08.606Z,9.47
2018-03-30T21:39:39.536Z,9.27
2018-03-30T21:42:11.764Z,8.57
2018-03-30T21:44:42.358Z,8.87
2018-03-30T21:47:13.172Z,8.63
2018-03-30T21:49:43.701Z,8.20
2018-03-30T21:52:14.859Z,8.93
2018-03-30T21:54:45.471Z,9.20
2018-03-30T21:57:16.152Z,9.13
2018-03-30T21:59:46.780Z,8.97
2018-03-30T22:02:17.964Z,8.47
2018-03-30T22:04:48.568Z,9.47
2018-03-30T22:07:19.410Z,9.13
2018-03-30T22:09:50.419Z,8.37
2018-03-30T22:12:20.998Z,10.27
2018-03-30T22:14:51.665Z,8.67
2018-03-30T22:17:22.627Z,8.40
2018-03-30T22:19:53.179Z,8.37
2018-03-30T22:22:23.771Z,8.93
2018-03-30T22:24:54.744Z,9.33
2018-03-30T22:27:25.541Z,8.43
2018-03-30T22:29:56.588Z,9.13
2018-03-30T22:32:27.849Z,9.67
2018-03-30T22:34:59.692Z,9.63
2018-03-30T22:37:30.208Z,9.77
2018-03-30T22:40:01.416Z,10.20
2018-03-30T22:42:32.113Z,9.50
2018-03-30T22:45:03.661Z,9.23
2018-03-30T22:47:34.830Z,9.17
2018-03-30T22:50:07.763Z,8.60
2018-03-30T22:52:42.831Z,10.03
2018-03-30T22:55:14.755Z,10.17
2018-03-30T22:57:46.156Z,10.53
2018-03-30T23:00:16.991Z,9.07
2018-03-30T23:02:47.604Z,9.57
2018-03-30T23:05:19.093Z,9.30
2018-03-30T23:07:50.019Z,9.87
2018-03-30T23:10:21.074Z,9.67
2018-03-30T23:12:52.061Z,9.53
2018-03-30T23:15:23.214Z,10.60
2018-03-30T23:17:54.035Z,10.97
2018-03-30T23:20:25.007Z,9.37
2018-03-30T23:22:55.771Z,9.33
2018-03-30T23:25:26.943Z,10.67
2018-03-30T23:27:57.819Z,11.13
2018-03-30T23:30:28.772Z,11.27
2018-03-30T23:32:59.573Z,11.00
2018-03-30T23:35:30.676Z,11.97
2018-03-30T23:38:01.441Z,11.50
2018-03-30T23:40:32.316Z,12.47
2018-03-30T23:43:03.310Z,12.10
2018-03-30T23:45:34.119Z,12.37
2018-03-30T23:48:04.889Z,12.43
2018-03-30T23:50:36.301Z,11.50
2018-03-30T23:53:07.984Z,10.90
2018-03-30T23:55:38.778Z,11.33
2018-03-30T23:58:09.724Z,11.67
